createdAt,value
2022-11-12T00:02:03.819Z,100.00
2022-11-12T00:04:50.381Z,100.00
2022-11-12T00:07:36.940Z,100.00
2022-11-12T00:10:23.779Z,100.00
2022-11-12T00:13:11.900Z,100.00
2022-11-12T00:15:58.685Z,100.00
2022-11-12T00:18:45.336Z,100.00
2022-11-12T00:21:31.817Z,100.00
2022-11-12T00:24:18.687Z,100.00
2022-11-12T00:27:05.386Z,100.00
2022-11-12T00:29:53.426Z,100.00
2022-11-12T00:32:40.265Z,100.00
2022-11-12T00:35:27.207Z,100.00
2022-11-12T00:38:13.786Z,100.00
2022-11-12T00:41:00.627Z,100.00
2022-11-12T00:43:47.589Z,100.00
2022-11-12T00:46:35.447Z,100.00
2022-11-12T00:49:22.054Z,100.00
2022-11-12T00:52:08.894Z,100.00
2022-11-12T00:54:55.271Z,100.00
2022-11-12T00:57:41.700Z,100.00
2022-11-12T01:00:28.396Z,100.00
2022-11-12T01:03:16.475Z,100.00
2022-11-12T01:06:04.796Z,100.00
2022-11-12T01:08:52.247Z,100.00
2022-11-12T01:11:41.816Z,100.00
2022-11-12T01:14:28.609Z,100.00
2022-11-12T01:17:15.356Z,100.00
2022-11-12T01:20:03.812Z,100.00
2022-11-12T01:22:50.506Z,100.00
2022-11-12T01:25:38.688Z,100.00
2022-11-12T01:28:26.076Z,100.00
2022-11-12T01:31:14.938Z,100.00
2022-11-12T01:34:03.901Z,100.00
2022-11-12T01:36:51.892Z,100.00
2022-11-12T01:39:38.597Z,100.00
2022-11-12T01:42:27.532Z,100.00
2022-11-12T01:45:16.515Z,100.00
2022-11-12T01:48:04.491Z,100.00
2022-11-12T01:50:51.803Z,100.00
2022-11-12T01:53:43.788Z,100.00
2022-11-12T01:56:32.396Z,100.00
2022-11-12T01:59:25.305Z,100.00
2022-11-12T02:02:12.529Z,100.00
2022-11-12T02:05:00.205Z,100.00
2022-11-12T02:07:49.083Z,100.00
2022-11-12T02:10:36.916Z,100.00
2022-11-12T02:13:55.758Z,100.00
2022-11-12T02:16:44.832Z,100.00
2022-11-12T02:19:31.397Z,100.00
2022-11-12T02:22:19.543Z,100.00
2022-11-12T02:25:07.959Z,100.00
2022-11-12T02:27:57.090Z,100.00
2022-11-12T02:30:46.091Z,100.00
2022-11-12T02:33:32.930Z,100.00
2022-11-12T02:36:19.779Z,100.00
2022-11-12T02:39:08.588Z,100.00
2022-11-12T02:41:55.201Z,100.00
2022-11-12T02:44:41.966Z,100.00
2022-11-12T02:47:28.879Z,100.00
2022-11-12T02:50:16.439Z,100.00
2022-11-12T02:53:03.119Z,100.00
2022-11-12T02:55:51.079Z,100.00
2022-11-12T02:58:37.548Z,100.00
2022-11-12T03:01:24.375Z,100.00
2022-11-12T03:04:11.256Z,100.00
2022-11-12T03:06:58.036Z,100.00
2022-11-12T03:09:44.896Z,100.00
2022-11-12T03:12:33.219Z,100.00
2022-11-12T03:15:20.020Z,100.00
2022-11-12T03:18:06.530Z,100.00
2022-11-12T03:20:53.379Z,100.00
2022-11-12T03:23:39.916Z,100.00
2022-11-12T03:26:27.924Z,100.00
2022-11-12T03:29:17.621Z,100.00
2022-11-12T03:32:04.284Z,100.00
2022-11-12T03:34:55.241Z,100.00
2022-11-12T03:37:42.075Z,100.00
2022-11-12T03:40:29.432Z,100.00
2022-11-12T03:43:16.361Z,100.00
2022-11-12T03:46:04.450Z,100.00
2022-11-12T03:48:51.109Z,100.00
2022-11-12T03:51:37.973Z,100.00
2022-11-12T03:54:24.763Z,100.00
2022-11-12T03:57:11.512Z,100.00
2022-11-12T03:59:58.403Z,100.00
2022-11-12T04:02:46.767Z,100.00
2022-11-12T04:05:50.879Z,100.00
2022-11-12T04:08:37.798Z,100.00
2022-11-12T04:11:25.629Z,100.00
2022-11-12T04:14:12.284Z,100.00
2022-11-12T04:17:16.435Z,100.00
2022-11-12T04:20:22.859Z,100.00
2022-11-12T04:23:09.622Z,100.00
2022-11-12T04:26:13.759Z,100.00
2022-11-12T04:29:20.348Z,100.00
2022-11-12T04:32:07.183Z,100.00
2022-11-12T04:34:54.170Z,100.00
2022-11-12T04:37:47.937Z,100.00
2022-11-12T04:40:52.733Z,100.00
2022-11-12T04:43:57.173Z,100.00
2022-11-12T04:46:43.843Z,100.00
2022-11-12T04:49:30.500Z,100.00
2022-11-12T04:52:17.572Z,100.00
2022-11-12T04:55:06.307Z,100.00
2022-11-12T04:57:56.198Z,100.00
2022-11-12T05:00:47.081Z,100.00
2022-11-12T05:03:33.828Z,100.00
2022-11-12T05:06:39.168Z,100.00
2022-11-12T05:09:27.932Z,100.00
2022-11-12T05:12:15.854Z,100.00
2022-11-12T05:15:02.640Z,100.00
2022-11-12T05:17:49.140Z,100.00
2022-11-12T05:20:36.485Z,100.00
2022-11-12T05:23:23.410Z,100.00
2022-11-12T05:26:10.006Z,100.00
2022-11-12T05:28:57.804Z,100.00
2022-11-12T05:31:44.880Z,100.00
2022-11-12T05:34:31.538Z,100.00
2022-11-12T05:37:18.384Z,100.00
2022-11-12T05:40:05.960Z,100.00
2022-11-12T05:42:53.056Z,100.00
2022-11-12T05:45:43.366Z,100.00
2022-11-12T05:48:31.308Z,100.00
2022-11-12T05:51:18.354Z,100.00
2022-11-12T05:54:05.495Z,100.00
2022-11-12T05:56:52.825Z,100.00
2022-11-12T05:59:39.592Z,100.00
2022-11-12T06:02:27.524Z,100.00
2022-11-12T06:05:14.245Z,100.00
2022-11-12T06:08:01.092Z,100.00
2022-11-12T06:10:49.502Z,100.00
2022-11-12T06:13:36.441Z,100.00
2022-11-12T06:16:23.108Z,100.00
2022-11-12T06:19:10.799Z,100.00
2022-11-12T06:21:57.202Z,100.00
2022-11-12T06:24:43.837Z,100.00
2022-11-12T06:27:30.657Z,100.00
2022-11-12T06:30:18.065Z,100.00
2022-11-12T06:33:07.182Z,100.00
2022-11-12T06:36:03.869Z,100.00
2022-11-12T06:38:50.431Z,100.00
2022-11-12T06:41:36.885Z,100.00
2022-11-12T06:44:23.967Z,100.00
2022-11-12T06:47:10.972Z,100.00
2022-11-12T06:49:57.898Z,100.00
2022-11-12T06:52:45.824Z,100.00
2022-11-12T06:55:32.485Z,100.00
2022-11-12T06:58:19.484Z,100.00
2022-11-12T07:01:11.463Z,100.00
2022-11-12T07:03:59.077Z,100.00
2022-11-12T07:06:45.954Z,100.00
2022-11-12T07:09:34.273Z,100.00
2022-11-12T07:12:20.964Z,100.00
2022-11-12T07:15:08.902Z,100.00
2022-11-12T07:17:55.711Z,100.00
2022-11-12T07:20:42.353Z,100.00
2022-11-12T07:23:29.701Z,100.00
2022-11-12T07:26:19.628Z,100.00
2022-11-12T07:29:07.199Z,100.00
2022-11-12T07:31:53.968Z,100.00
2022-11-12T07:34:40.323Z,100.00
2022-11-12T07:37:26.965Z,100.00
2022-11-12T07:40:13.770Z,100.00
2022-11-12T07:43:01.860Z,100.00
2022-11-12T07:45:48.843Z,100.00
2022-11-12T07:48:36.518Z,100.00
2022-11-12T07:51:25.003Z,100.00
2022-11-12T07:54:11.607Z,100.00
2022-11-12T07:56:58.248Z,100.00
2022-11-12T07:59:46.679Z,100.00
2022-11-12T08:02:33.230Z,100.00
2022-11-12T08:05:21.451Z,100.00
2022-11-12T08:08:08.717Z,100.00
2022-11-12T08:10:56.740Z,100.00
2022-11-12T08:13:43.227Z,100.00
2022-11-12T08:16:31.590Z,100.00
2022-11-12T08:19:18.362Z,100.00
2022-11-12T08:22:04.795Z,100.00
2022-11-12T08:24:51.276Z,100.00
2022-11-12T08:27:38.885Z,100.00
2022-11-12T08:30:26.351Z,100.00
2022-11-12T08:33:14.144Z,100.00
2022-11-12T08:36:04.135Z,100.00
2022-11-12T08:38:53.243Z,100.00
2022-11-12T08:41:40.140Z,100.00
2022-11-12T08:44:26.907Z,100.00
2022-11-12T08:47:14.261Z,100.00
2022-11-12T08:50:02.432Z,100.00
2022-11-12T08:52:49.520Z,100.00
2022-11-12T08:55:37.394Z,100.00
2022-11-12T08:58:25.292Z,100.00
2022-11-12T09:01:12.032Z,100.00
2022-11-12T09:03:58.663Z,100.00
2022-11-12T09:06:52.677Z,100.00
2022-11-12T09:09:40.376Z,100.00
2022-11-12T09:12:26.847Z,100.00
2022-11-12T09:18:20.464Z,100.00
2022-11-12T09:21:09.100Z,100.00
2022-11-12T09:23:57.228Z,100.00
2022-11-12T09:26:43.868Z,100.00
2022-11-12T09:29:30.632Z,100.00
2022-11-12T09:32:17.432Z,100.00
2022-11-12T09:35:05.124Z,100.00
2022-11-12T09:37:51.986Z,100.00
2022-11-12T09:40:54.140Z,100.00
2022-11-12T09:43:48.287Z,100.00
2022-11-12T09:46:40.739Z,100.00
2022-11-12T09:49:33.742Z,100.00
2022-11-12T09:52:26.032Z,100.00
2022-11-12T09:55:21.054Z,100.00
2022-11-12T09:58:13.017Z,100.00
2022-11-12T10:01:04.524Z,100.00
2022-11-12T10:03:58.919Z,100.00
2022-11-12T10:06:52.870Z,100.00
2022-11-12T10:09:46.208Z,100.00
2022-11-12T10:12:46.647Z,100.00
2022-11-12T10:15:57.835Z,100.00
2022-11-12T10:19:10.136Z,100.00
2022-11-12T10:22:04.636Z,100.00
2022-11-12T10:24:51.512Z,100.00
2022-11-12T10:27:42.090Z,100.00
2022-11-12T10:30:28.681Z,100.00
2022-11-12T10:33:17.960Z,100.00
2022-11-12T10:36:19.494Z,100.00
2022-11-12T10:39:06.257Z,100.00
2022-11-12T10:42:03.592Z,100.00
2022-11-12T10:44:51.997Z,100.00
2022-11-12T10:47:42.915Z,100.00
2022-11-12T10:50:36.726Z,100.00
2022-11-12T10:53:33.827Z,100.00
2022-11-12T10:56:27.381Z,100.00
2022-11-12T10:59:18.634Z,100.00
2022-11-12T11:02:18.048Z,100.00
2022-11-12T11:05:30.083Z,100.00
2022-11-12T11:08:36.272Z,100.00
2022-11-12T11:11:26.634Z,100.00
2022-11-12T11:14:29.823Z,100.00
2022-11-12T11:17:18.577Z,100.00
2022-11-12T11:20:07.006Z,99.97
2022-11-12T11:22:58.003Z,99.93
2022-11-12T11:25:51.118Z,100.00
2022-11-12T11:28:43.799Z,99.72
2022-11-12T11:31:40.293Z,99.82
2022-11-12T11:34:37.764Z,99.17
2022-11-12T11:37:28.750Z,98.18
2022-11-12T11:40:25.387Z,98.96
2022-11-12T11:43:40.442Z,98.34
2022-11-12T11:46:47.137Z,97.64
2022-11-12T11:50:00.806Z,98.04
2022-11-12T11:52:55.619Z,97.90
2022-11-12T11:55:53.903Z,97.02
2022-11-12T11:59:16.081Z,97.41
2022-11-12T12:02:26.071Z,96.68
2022-11-12T12:05:30.445Z,96.45
2022-11-12T12:08:23.004Z,96.33
2022-11-12T12:11:16.723Z,96.95
2022-11-12T12:14:17.585Z,97.54
2022-11-12T12:17:14.008Z,97.31
2022-11-12T12:20:10.295Z,96.55
2022-11-12T12:23:01.812Z,96.03
2022-11-12T12:25:50.220Z,96.14
2022-11-12T12:28:41.132Z,96.33
2022-11-12T12:31:33.785Z,96.26
2022-11-12T12:34:25.312Z,96.23
2022-11-12T12:37:21.521Z,96.03
2022-11-12T12:40:18.649Z,95.60
2022-11-12T12:43:11.887Z,95.33
2022-11-12T12:45:58.687Z,95.31
2022-11-12T12:48:47.137Z,95.26
2022-11-12T12:51:35.425Z,95.80
2022-11-12T12:54:57.608Z,96.05
2022-11-12T12:57:44.169Z,96.46
2022-11-12T13:00:38.858Z,96.42
2022-11-12T13:03:52.172Z,96.62
2022-11-12T13:06:41.827Z,96.67
2022-11-12T13:09:29.056Z,96.74
2022-11-12T13:12:24.627Z,96.27
2022-11-12T13:15:16.851Z,95.41
2022-11-12T13:18:03.713Z,95.73
2022-11-12T13:21:10.264Z,96.81
2022-11-12T13:24:08.448Z,96.96
2022-11-12T13:26:57.327Z,97.06
2022-11-12T13:29:47.260Z,96.26
2022-11-12T13:32:36.829Z,96.51
2022-11-12T13:35:29.619Z,97.08
2022-11-12T13:38:16.528Z,97.54
2022-11-12T13:41:12.411Z,98.06
2022-11-12T13:43:59.040Z,98.79
2022-11-12T13:46:47.348Z,98.53
2022-11-12T13:49:36.244Z,98.93
2022-11-12T13:52:23.514Z,99.76
2022-11-12T13:55:16.454Z,99.11
2022-11-12T13:58:03.423Z,99.33
2022-11-12T14:00:54.316Z,100.00
2022-11-12T14:03:46.080Z,100.00
2022-11-12T14:06:37.243Z,100.00
2022-11-12T14:09:42.130Z,100.00
2022-11-12T14:12:46.069Z,100.00
2022-11-12T14:15:55.505Z,100.00
2022-11-12T14:19:03.103Z,100.00
2022-11-12T14:22:00.981Z,100.00
2022-11-12T14:25:01.277Z,100.00
2022-11-12T14:27:49.266Z,100.00
2022-11-12T14:30:44.721Z,100.00
2022-11-12T14:33:33.458Z,100.00
2022-11-12T14:36:22.094Z,100.00
2022-11-12T14:39:12.263Z,100.00
2022-11-12T14:42:00.624Z,100.00
2022-11-12T14:44:47.252Z,100.00
2022-11-12T14:47:34.189Z,100.00
2022-11-12T14:50:25.041Z,100.00
2022-11-12T14:53:23.499Z,100.00
2022-11-12T14:56:23.633Z,100.00
2022-11-12T14:59:13.593Z,100.00
2022-11-12T15:02:28.613Z,100.00
2022-11-12T15:05:17.110Z,100.00
2022-11-12T15:08:06.223Z,100.00
2022-11-12T15:10:54.323Z,100.00
2022-11-12T15:13:43.383Z,100.00
2022-11-12T15:16:32.445Z,100.00
2022-11-12T15:19:22.067Z,100.00
2022-11-12T15:22:20.902Z,100.00
2022-11-12T15:25:13.195Z,100.00
2022-11-12T15:28:21.364Z,100.00
2022-11-12T15:31:17.171Z,100.00
2022-11-12T15:34:26.627Z,100.00
2022-11-12T15:37:23.573Z,100.00
2022-11-12T15:40:13.539Z,100.00
2022-11-12T15:43:02.052Z,100.00
2022-11-12T15:45:52.207Z,100.00
2022-11-12T15:48:38.641Z,100.00
2022-11-12T15:51:25.195Z,100.00
2022-11-12T15:54:11.730Z,100.00
2022-11-12T15:56:58.593Z,100.00
2022-11-12T15:59:47.944Z,100.00
2022-11-12T16:02:36.219Z,100.00
2022-11-12T16:05:23.126Z,100.00
2022-11-12T16:08:09.788Z,100.00
2022-11-12T16:10:56.611Z,100.00
2022-11-12T16:13:43.144Z,100.00
2022-11-12T16:16:29.666Z,100.00
2022-11-12T16:19:17.838Z,100.00
2022-11-12T16:22:12.194Z,100.00
2022-11-12T16:24:58.717Z,100.00
2022-11-12T16:27:45.615Z,100.00
2022-11-12T16:30:34.266Z,100.00
2022-11-12T16:33:20.977Z,100.00
2022-11-12T16:36:15.127Z,100.00
2022-11-12T16:39:01.983Z,100.00
2022-11-12T16:41:48.402Z,100.00
2022-11-12T16:44:34.793Z,100.00
2022-11-12T16:47:21.322Z,100.00
2022-11-12T16:50:10.574Z,100.00
2022-11-12T16:52:58.653Z,100.00
2022-11-12T16:55:45.709Z,100.00
2022-11-12T16:58:32.975Z,100.00
2022-11-12T17:01:25.833Z,100.00
2022-11-12T17:04:12.513Z,100.00
2022-11-12T17:06:59.010Z,100.00
2022-11-12T17:09:46.723Z,100.00
2022-11-12T17:12:33.598Z,100.00
2022-11-12T17:15:20.521Z,100.00
2022-11-12T17:18:08.454Z,100.00
2022-11-12T17:20:55.128Z,100.00
2022-11-12T17:23:43.819Z,100.00
2022-11-12T17:26:31.618Z,100.00
2022-11-12T17:29:18.644Z,100.00
2022-11-12T17:32:05.670Z,100.00
2022-11-12T17:34:52.300Z,100.00
2022-11-12T17:37:38.831Z,100.00
2022-11-12T17:40:25.694Z,100.00
2022-11-12T17:43:13.639Z,100.00
2022-11-12T17:46:01.104Z,100.00
2022-11-12T17:48:47.872Z,100.00
2022-11-12T17:51:34.309Z,100.00
2022-11-12T17:54:21.674Z,100.00
2022-11-12T17:57:08.297Z,100.00
2022-11-12T17:59:56.408Z,100.00
2022-11-12T18:02:42.927Z,100.00
2022-11-12T18:05:29.288Z,100.00
2022-11-12T18:08:16.157Z,100.00
2022-11-12T18:11:03.540Z,100.00
2022-11-12T18:13:50.446Z,100.00
2022-11-12T18:16:38.756Z,100.00
2022-11-12T18:19:25.597Z,100.00
2022-11-12T18:22:14.607Z,100.00
2022-11-12T18:25:01.379Z,100.00
2022-11-12T18:27:47.954Z,100.00
2022-11-12T18:30:35.659Z,100.00
2022-11-12T18:33:23.655Z,100.00
2022-11-12T18:36:13.030Z,100.00
2022-11-12T18:38:59.707Z,100.00
2022-11-12T18:41:46.156Z,100.00
2022-11-12T18:44:32.789Z,100.00
2022-11-12T18:47:19.529Z,100.00
2022-11-12T18:50:09.042Z,100.00
2022-11-12T18:52:55.833Z,100.00
2022-11-12T18:55:42.506Z,100.00
2022-11-12T18:58:34.648Z,100.00
2022-11-12T19:01:24.269Z,100.00
2022-11-12T19:04:12.120Z,100.00
2022-11-12T19:07:00.274Z,100.00
2022-11-12T19:09:46.994Z,100.00
2022-11-12T19:12:33.491Z,100.00
2022-11-12T19:15:25.540Z,100.00
2022-11-12T19:18:14.886Z,100.00
2022-11-12T19:21:03.421Z,100.00
2022-11-12T19:23:54.776Z,100.00
2022-11-12T19:26:41.998Z,100.00
2022-11-12T19:29:28.582Z,100.00
2022-11-12T19:32:15.376Z,100.00
2022-11-12T19:35:01.992Z,100.00
2022-11-12T19:37:48.679Z,100.00
2022-11-12T19:40:37.023Z,100.00
2022-11-12T19:43:24.667Z,100.00
2022-11-12T19:46:12.242Z,100.00
2022-11-12T19:48:59.093Z,100.00
2022-11-12T19:51:45.701Z,100.00
2022-11-12T19:54:32.295Z,100.00
2022-11-12T19:57:20.135Z,100.00
2022-11-12T20:00:08.204Z,100.00
2022-11-12T20:02:55.472Z,100.00
2022-11-12T20:05:42.273Z,100.00
2022-11-12T20:08:29.323Z,100.00
2022-11-12T20:11:18.391Z,100.00
2022-11-12T20:14:06.756Z,100.00
2022-11-12T20:16:53.498Z,100.00
2022-11-12T20:19:39.894Z,100.00
2022-11-12T20:22:31.673Z,100.00
2022-11-12T20:25:19.017Z,100.00
2022-11-12T20:28:05.867Z,100.00
2022-11-12T20:31:00.795Z,100.00
2022-11-12T20:33:48.544Z,100.00
2022-11-12T20:36:35.420Z,100.00
2022-11-12T20:39:22.353Z,100.00
2022-11-12T20:42:08.790Z,100.00
2022-11-12T20:44:55.335Z,100.00
2022-11-12T20:47:43.236Z,100.00
2022-11-12T20:50:30.208Z,100.00
2022-11-12T20:53:16.884Z,100.00
2022-11-12T20:56:11.152Z,100.00
2022-11-12T20:58:58.256Z,100.00
2022-11-12T21:01:45.200Z,100.00
2022-11-12T21:04:33.164Z,100.00
2022-11-12T21:07:19.836Z,100.00
2022-11-12T21:10:07.603Z,100.00
2022-11-12T21:12:53.980Z,100.00
2022-11-12T21:15:46.043Z,100.00
2022-11-12T21:18:33.992Z,100.00
2022-11-12T21:21:22.411Z,100.00
2022-11-12T21:24:09.281Z,100.00
2022-11-12T21:26:55.951Z,100.00
2022-11-12T21:29:42.475Z,100.00
2022-11-12T21:32:28.970Z,100.00
2022-11-12T21:35:15.675Z,100.00
2022-11-12T21:38:03.710Z,100.00
2022-11-12T21:40:50.513Z,100.00
2022-11-12T21:43:38.519Z,100.00
2022-11-12T21:46:26.558Z,100.00
2022-11-12T21:49:13.130Z,100.00
2022-11-12T21:51:59.926Z,100.00
2022-11-12T21:54:47.779Z,100.00
2022-11-12T21:57:34.299Z,100.00
2022-11-12T22:00:40.985Z,100.00
2022-11-12T22:03:31.329Z,100.00
2022-11-12T22:06:19.957Z,100.00
2022-11-12T22:09:06.681Z,100.00
2022-11-12T22:11:54.538Z,100.00
2022-11-12T22:14:41.119Z,100.00
2022-11-12T22:17:27.634Z,100.00
2022-11-12T22:20:14.446Z,100.00
2022-11-12T22:23:00.953Z,100.00
2022-11-12T22:25:48.339Z,100.00
2022-11-12T22:28:36.446Z,100.00
2022-11-12T22:31:24.782Z,100.00
2022-11-12T22:34:11.343Z,100.00
2022-11-12T22:36:58.132Z,100.00
2022-11-12T22:39:44.629Z,100.00
2022-11-12T22:42:31.202Z,100.00
2022-11-12T22:45:19.063Z,100.00
2022-11-12T22:48:06.362Z,100.00
2022-11-12T22:50:59.285Z,100.00
2022-11-12T22:53:46.140Z,100.00
2022-11-12T22:56:34.175Z,100.00
2022-11-12T22:59:20.866Z,100.00
2022-11-12T23:02:09.220Z,100.00
2022-11-12T23:04:55.733Z,100.00
2022-11-12T23:07:43.124Z,100.00
2022-11-12T23:10:31.802Z,100.00
2022-11-12T23:13:18.262Z,100.00
2022-11-12T23:16:07.730Z,100.00
2022-11-12T23:18:55.748Z,100.00
2022-11-12T23:21:42.114Z,100.00
2022-11-12T23:24:28.595Z,100.00
2022-11-12T23:27:15.210Z,100.00
2022-11-12T23:30:01.659Z,100.00
2022-11-12T23:32:48.339Z,100.00
2022-11-12T23:35:36.177Z,100.00
2022-11-12T23:38:22.864Z,100.00
2022-11-12T23:41:11.714Z,100.00
2022-11-12T23:43:59.151Z,100.00
2022-11-12T23:46:45.739Z,100.00
2022-11-12T23:49:32.620Z,100.00
2022-11-12T23:52:20.917Z,100.00
2022-11-12T23:55:08.032Z,100.00
2022-11-12T23:57:54.871Z,100.00
